Time;durP1;ratioP1;P1;durP2;ratioP2;P2;SDS_P1;SDS_P2;PMS_P1;PMS_P2;Temp;Humidity;BMP_temperature;BMP_pressure;BME280_temperature;BME280_humidity;BME280_pressure;Samples;Min_cycle;Max_cycle;Signal;HPM_P1;HPM_P2
2022/06/27 03:11:19;;;;;;;11.25;8.27;;;16.40;99.90;;;;;;6222907;22;20073;-83
2022/06/27 03:13:49;;;;;;;13.70;8.80;;;16.40;99.90;;;;;;6288119;22;20317;-82
2022/06/27 03:16:36;;;;;;;;;;;;;;;;;;;;;
2022/06/27 03:23:15;;;;;;;;;;;;;;;;;;;;;
2022/06/27 03:26:44;;;;;;;12.07;7.88;;;16.40;99.90;;;;;;6309045;22;20019;-82
2022/06/27 03:29:28;;;;;;;11.43;8.60;;;16.50;99.90;;;;;;6190678;23;20363;-82
2022/06/27 03:31:56;;;;;;;16.20;8.40;;;16.50;99.90;;;;;;6189892;23;20143;-81
2022/06/27 03:34:33;;;;;;;10.95;8.18;;;16.40;99.90;;;;;;6282386;22;20026;-82
2022/06/27 03:37:11;;;;;;;;;;;;;;;;;;;;;
2022/06/27 03:40:03;;;;;;;;;;;;;;;;;;;;;
2022/06/27 03:43:22;;;;;;;11.25;7.93;;;16.50;99.90;;;;;;6276059;22;20016;-82
2022/06/27 03:46:25;;;;;;;;;;;;;;;;;;;;;
2022/06/27 03:51:48;;;;;;;14.02;8.25;;;16.30;99.90;;;;;;6160123;23;20519;-82
2022/06/27 03:54:29;;;;;;;10.48;8.60;;;16.40;99.90;;;;;;6134519;23;20447;-83
2022/06/27 03:57:08;;;;;;;;;;;;;;;;;;;;;
2022/06/27 03:59:41;;;;;;;15.65;9.57;;;16.30;99.90;;;;;;6159842;23;20013;-81
2022/06/27 04:02:45;;;;;;;14.88;9.27;;;16.40;99.90;;;;;;6160123;23;20063;-82
2022/06/27 04:05:27;;;;;;;15.45;9.45;;;16.40;99.90;;;;;;6176873;23;20017;-82
2022/06/27 04:08:27;;;;;;;;;;;;;;;;;;;;;
2022/06/27 04:11:16;;;;;;;;;;;;;;;;;;;;;
2022/06/27 04:13:48;;;;;;;17.15;10.13;;;16.30;99.90;;;;;;6193406;23;20028;-82
2022/06/27 04:16:16;;;;;;;13.25;9.18;;;16.30;99.90;;;;;;6219490;22;20017;-82
2022/06/27 04:18:55;;;;;;;;;;;;;;;;;;;;;
2022/06/27 04:21:32;;;;;;;14.70;9.50;;;16.30;99.90;;;;;;6312477;22;20089;-82
2022/06/27 04:24:02;;;;;;;15.40;9.80;;;16.30;99.90;;;;;;6341752;22;20003;-80
2022/06/27 04:26:48;;;;;;;;;;;;;;;;;;;;;
2022/06/27 04:29:25;;;;;;;14.85;10.50;;;16.40;99.90;;;;;;6312633;22;20440;-80
2022/06/27 04:31:52;;;;;;;13.15;10.73;;;16.40;99.90;;;;;;6285297;22;20042;-81
2022/06/27 04:34:27;;;;;;;12.85;10.60;;;16.50;99.90;;;;;;6288312;22;20059;-82
2022/06/27 04:37:09;;;;;;;15.60;10.60;;;16.40;99.90;;;;;;6287038;22;20015;-82
2022/06/27 04:40:11;;;;;;;;;;;;;;;;;;;;;
2022/06/27 04:43:04;;;;;;;11.63;9.63;;;16.50;99.90;;;;;;6312509;22;20021;-83
2022/06/27 04:45:41;;;;;;;17.55;10.00;;;16.60;99.90;;;;;;6280993;22;20014;-83
2022/06/27 04:48:20;;;;;;;15.38;10.38;;;16.60;99.90;;;;;;6314345;22;20019;-82
2022/06/27 04:50:49;;;;;;;15.02;10.18;;;16.60;99.90;;;;;;6285031;22;20007;-81
2022/06/27 04:53:27;;;;;;;12.52;9.55;;;16.60;99.90;;;;;;6288373;22;20068;-82
2022/06/27 04:55:56;;;;;;;13.23;9.68;;;16.60;99.90;;;;;;6288792;22;20046;-81
2022/06/27 04:58:22;;;;;;;13.25;8.73;;;16.70;99.90;;;;;;6287779;22;20006;-82
2022/06/27 05:00:48;;;;;;;15.90;9.77;;;16.70;99.90;;;;;;6341268;22;20086;-81
2022/06/27 05:03:14;;;;;;;12.25;8.40;;;16.60;99.90;;;;;;6340816;22;20007;-81
2022/06/27 05:05:39;;;;;;;11.98;9.05;;;16.70;99.90;;;;;;6341136;22;20083;-83
2022/06/27 05:08:05;;;;;;;13.43;8.63;;;16.70;99.90;;;;;;6341408;22;20325;-81
2022/06/27 05:10:30;;;;;;;13.27;9.38;;;16.70;99.90;;;;;;6313232;22;20006;-83
2022/06/27 05:12:56;;;;;;;13.60;9.18;;;16.70;99.90;;;;;;6341342;22;20010;-82
2022/06/27 05:15:22;;;;;;;12.00;8.80;;;16.70;99.90;;;;;;6312666;22;20017;-82
2022/06/27 05:17:47;;;;;;;13.70;9.05;;;16.70;99.90;;;;;;6341047;22;20029;-82
2022/06/27 05:20:13;;;;;;;12.18;9.15;;;16.70;99.90;;;;;;6341088;22;20455;-83
2022/06/27 05:22:39;;;;;;;12.25;9.52;;;16.80;99.90;;;;;;6313160;22;20041;-83
2022/06/27 05:25:07;;;;;;;14.23;9.05;;;16.80;99.90;;;;;;6341198;22;20309;-82
2022/06/27 05:27:35;;;;;;;12.90;9.10;;;16.90;99.90;;;;;;6341078;22;20014;-82
2022/06/27 05:30:01;;;;;;;13.05;8.90;;;16.90;99.90;;;;;;6313145;22;20015;-82
2022/06/27 05:32:27;;;;;;;13.93;9.23;;;16.90;99.90;;;;;;6312853;22;20017;-82
2022/06/27 05:34:53;;;;;;;13.95;9.30;;;17.00;99.90;;;;;;6287025;22;20082;-82
2022/06/27 05:37:18;;;;;;;12.23;9.60;;;17.00;99.90;;;;;;6340704;22;20018;-81
2022/06/27 05:39:46;;;;;;;11.18;8.88;;;17.10;99.90;;;;;;6286936;22;20333;-81
2022/06/27 05:42:11;;;;;;;13.35;9.50;;;17.10;99.90;;;;;;6340475;22;20007;-82
2022/06/27 05:44:37;;;;;;;14.23;10.13;;;17.10;99.90;;;;;;6340723;22;20007;-81
2022/06/27 05:47:03;;;;;;;13.07;9.63;;;17.20;99.90;;;;;;6341122;22;20015;-81
2022/06/27 05:49:29;;;;;;;13.13;9.20;;;17.20;99.90;;;;;;6341067;22;20313;-83
2022/06/27 05:51:59;;;;;;;12.93;9.20;;;17.20;99.90;;;;;;6287945;22;20313;-83
2022/06/27 05:54:26;;;;;;;11.82;9.50;;;17.20;99.90;;;;;;6288173;22;20064;-84
2022/06/27 05:56:52;;;;;;;15.65;9.20;;;17.20;99.90;;;;;;6340787;22;20042;-82
2022/06/27 05:59:18;;;;;;;16.17;9.63;;;17.20;99.90;;;;;;6287297;22;20014;-82
2022/06/27 06:01:45;;;;;;;13.18;9.10;;;17.10;99.90;;;;;;6286526;22;20046;-82
2022/06/27 06:04:12;;;;;;;13.07;8.70;;;17.10;99.90;;;;;;6286978;22;20014;-82
2022/06/27 06:06:38;;;;;;;13.02;8.80;;;17.10;99.90;;;;;;6340640;22;20007;-83
2022/06/27 06:09:04;;;;;;;14.20;9.05;;;17.10;99.90;;;;;;6312747;22;20007;-81
2022/06/27 06:11:30;;;;;;;14.60;8.63;;;17.10;99.90;;;;;;6312900;22;20015;-83
2022/06/27 06:13:57;;;;;;;13.00;9.43;;;17.10;99.90;;;;;;6341086;22;20022;-83
2022/06/27 06:16:23;;;;;;;11.45;8.23;;;17.10;99.90;;;;;;6314121;22;20010;-82
2022/06/27 06:18:57;;;;;;;11.65;8.75;;;17.10;99.90;;;;;;6340437;22;20018;-82
2022/06/27 06:21:23;;;;;;;12.10;8.45;;;17.10;99.90;;;;;;6340491;22;20011;-82
2022/06/27 06:23:51;;;;;;;11.85;7.70;;;17.10;99.90;;;;;;6313077;22;20034;-81
2022/06/27 06:26:19;;;;;;;9.80;7.70;;;17.10;99.90;;;;;;6286831;22;20464;-81
2022/06/27 06:28:46;;;;;;;13.57;8.82;;;17.10;99.90;;;;;;6312450;22;20007;-84
2022/06/27 06:31:15;;;;;;;11.73;7.63;;;17.10;99.90;;;;;;6312224;22;20071;-82
2022/06/27 06:33:42;;;;;;;11.15;7.60;;;17.10;99.90;;;;;;6340625;22;20014;-83
2022/06/27 06:36:09;;;;;;;12.13;8.13;;;17.20;99.90;;;;;;6312857;22;20064;-82
2022/06/27 06:38:35;;;;;;;9.68;6.80;;;17.10;99.90;;;;;;6340662;22;20014;-81
2022/06/27 06:41:01;;;;;;;11.85;7.63;;;17.10;99.90;;;;;;6312702;22;20009;-81
2022/06/27 06:43:27;;;;;;;7.68;6.88;;;17.10;99.90;;;;;;6340451;22;20377;-82
2022/06/27 06:45:53;;;;;;;9.07;6.68;;;17.10;99.90;;;;;;6313003;22;20022;-81
2022/06/27 06:48:19;;;;;;;10.43;6.95;;;17.10;99.90;;;;;;6312432;22;20018;-82
2022/06/27 06:50:45;;;;;;;8.23;5.90;;;17.10;99.90;;;;;;6312273;22;20010;-81
2022/06/27 06:53:11;;;;;;;9.40;5.60;;;17.10;99.90;;;;;;6311937;22;20019;-82
2022/06/27 06:55:36;;;;;;;8.48;5.63;;;17.10;99.90;;;;;;6340289;22;20015;-83
2022/06/27 06:58:03;;;;;;;7.07;5.70;;;17.10;99.90;;;;;;6340264;22;20042;-83
2022/06/27 07:00:29;;;;;;;7.47;5.90;;;17.10;99.90;;;;;;6288191;22;20340;-81
2022/06/27 07:02:56;;;;;;;9.77;6.63;;;17.20;99.90;;;;;;6316863;22;20448;-83
2022/06/27 07:05:21;;;;;;;8.00;6.07;;;17.20;99.90;;;;;;6345285;22;20007;-82
2022/06/27 07:07:51;;;;;;;8.40;5.13;;;17.20;99.90;;;;;;6317825;22;20091;-81
2022/06/27 07:10:18;;;;;;;7.32;5.25;;;17.10;99.90;;;;;;6316048;22;20014;-82
2022/06/27 07:12:44;;;;;;;7.90;5.63;;;17.10;99.90;;;;;;6290541;22;20002;-80
2022/06/27 07:15:10;;;;;;;7.25;5.30;;;17.20;99.90;;;;;;6317287;22;20018;-81
2022/06/27 07:17:41;;;;;;;7.78;4.85;;;17.20;99.90;;;;;;6344646;22;20010;-82
2022/06/27 07:20:08;;;;;;;6.70;4.78;;;17.20;99.90;;;;;;6316302;22;20014;-81
2022/06/27 07:22:34;;;;;;;7.03;4.82;;;17.20;99.90;;;;;;6314218;22;20022;-82
2022/06/27 07:25:00;;;;;;;9.20;5.40;;;17.20;99.90;;;;;;6343998;22;20010;-82
2022/06/27 07:27:25;;;;;;;6.43;4.65;;;17.20;99.90;;;;;;6316557;22;20011;-80
2022/06/27 07:29:51;;;;;;;7.43;4.43;;;17.10;99.90;;;;;;6313368;22;20018;-80
2022/06/27 07:32:18;;;;;;;5.07;4.07;;;17.10;99.90;;;;;;6318414;22;20007;-81
2022/06/27 07:34:44;;;;;;;8.15;4.55;;;17.10;99.90;;;;;;6292118;22;20015;-82
2022/06/27 07:37:10;;;;;;;6.80;4.93;;;17.10;99.90;;;;;;6317557;22;20014;-81
2022/06/27 07:39:36;;;;;;;9.10;5.07;;;17.10;99.90;;;;;;6317257;22;20098;-78
2022/06/27 07:42:03;;;;;;;7.22;4.63;;;17.00;99.90;;;;;;6344265;22;20392;-80
2022/06/27 07:44:28;;;;;;;6.95;5.18;;;17.10;99.90;;;;;;6317430;22;20011;-82
2022/06/27 07:46:56;;;;;;;7.10;4.93;;;17.20;99.90;;;;;;6292978;22;20427;-78
2022/06/27 07:49:21;;;;;;;6.97;5.13;;;17.20;99.90;;;;;;6316873;22;20007;-82
2022/06/27 07:51:47;;;;;;;7.38;4.82;;;17.20;99.90;;;;;;6345052;22;20014;-82
2022/06/27 07:54:14;;;;;;;5.95;4.35;;;17.30;99.90;;;;;;6317540;22;20011;-81
2022/06/27 07:56:40;;;;;;;6.72;4.65;;;17.30;99.90;;;;;;6318292;22;20022;-79
2022/06/27 07:59:07;;;;;;;6.72;4.25;;;17.30;99.90;;;;;;6292075;22;20018;-80
2022/06/27 08:01:33;;;;;;;8.30;5.10;;;17.40;99.90;;;;;;6343616;22;20025;-81
2022/06/27 08:03:59;;;;;;;6.20;4.60;;;17.40;99.90;;;;;;6317169;22;20019;-81
2022/06/27 08:06:27;;;;;;;6.93;5.07;;;17.50;99.90;;;;;;6291723;22;20041;-79
2022/06/27 08:08:57;;;;;;;7.35;4.53;;;17.50;99.90;;;;;;6291455;22;20007;-81
2022/06/27 08:11:25;;;;;;;5.90;4.60;;;17.60;99.90;;;;;;6318235;22;20014;-80
2022/06/27 08:13:53;;;;;;;6.78;5.07;;;17.60;99.90;;;;;;6344882;22;20033;-80
2022/06/27 08:16:21;;;;;;;8.50;4.78;;;17.60;99.90;;;;;;6320067;22;20025;-80
2022/06/27 08:18:48;;;;;;;6.40;4.40;;;17.60;99.90;;;;;;6346185;22;20011;-79
2022/06/27 08:21:17;;;;;;;5.97;4.22;;;17.60;99.90;;;;;;6345720;22;20015;-81
2022/06/27 08:23:44;;;;;;;7.68;3.85;;;17.60;99.90;;;;;;6323626;22;20014;-77
2022/06/27 08:26:12;;;;;;;5.35;3.22;;;17.60;99.90;;;;;;6327014;22;20011;-77
2022/06/27 08:28:39;;;;;;;5.63;3.65;;;17.60;99.90;;;;;;6327911;22;20010;-79
2022/06/27 08:31:10;;;;;;;5.72;3.47;;;17.60;99.90;;;;;;6324621;22;20018;-78
2022/06/27 08:33:37;;;;;;;5.90;2.97;;;17.60;99.90;;;;;;6322295;22;20025;-81
2022/06/27 08:36:04;;;;;;;4.47;3.15;;;17.60;99.90;;;;;;6349164;22;20410;-78
2022/06/27 08:38:42;;;;;;;4.10;3.13;;;17.70;99.90;;;;;;6317993;22;20093;-82
2022/06/27 08:41:09;;;;;;;5.82;3.13;;;17.60;99.90;;;;;;6317042;22;20015;-80
2022/06/27 08:43:36;;;;;;;4.60;3.00;;;17.70;99.90;;;;;;6317328;22;20448;-83
2022/06/27 08:46:04;;;;;;;4.63;2.90;;;17.70;99.90;;;;;;6345050;22;20064;-81
2022/06/27 08:48:31;;;;;;;4.28;2.70;;;17.70;99.90;;;;;;6345277;22;20014;-81
2022/06/27 08:50:59;;;;;;;6.55;2.95;;;17.80;99.90;;;;;;6318030;22;20427;-80
2022/06/27 08:53:26;;;;;;;5.15;3.30;;;17.90;99.90;;;;;;6291066;22;20099;-80
2022/06/27 08:55:52;;;;;;;4.60;3.08;;;18.00;99.90;;;;;;6317406;22;20374;-82
2022/06/27 08:58:19;;;;;;;6.00;3.22;;;18.10;99.90;;;;;;6317451;22;20015;-79
2022/06/27 09:00:45;;;;;;;4.15;3.03;;;18.30;99.90;;;;;;6316801;22;20021;-79
2022/06/27 09:03:18;;;;;;;5.18;3.20;;;18.40;99.90;;;;;;6317310;22;20018;-81
2022/06/27 09:05:57;;;;;;;4.97;2.97;;;18.60;99.90;;;;;;6346687;22;20003;-81
2022/06/27 09:08:28;;;;;;;4.35;2.70;;;18.70;99.90;;;;;;6315816;22;20424;-80
2022/06/27 09:10:56;;;;;;;4.47;2.92;;;18.80;99.90;;;;;;6344315;22;20011;-81
2022/06/27 09:13:23;;;;;;;5.32;2.97;;;18.80;99.90;;;;;;6343982;22;20382;-79
2022/06/27 09:16:03;;;;;;;8.98;3.90;;;18.80;99.90;;;;;;6316794;22;20440;-83
2022/06/27 09:18:28;;;;;;;5.40;3.53;;;18.80;99.90;;;;;;6291261;22;20452;-81
2022/06/27 09:21:01;;;;;;;5.63;3.50;;;18.80;99.90;;;;;;6343768;22;20072;-82
2022/06/27 09:24:02;;;;;;;6.75;4.28;;;18.70;99.90;;;;;;6317372;22;20086;-81
2022/06/27 09:26:30;;;;;;;6.03;3.20;;;18.60;99.90;;;;;;6316189;22;20440;-81
2022/06/27 09:29:00;;;;;;;6.03;3.08;;;18.80;99.90;;;;;;6344457;22;20003;-80
2022/06/27 09:31:28;;;;;;;6.72;3.47;;;18.80;99.90;;;;;;6317189;22;20011;-84
2022/06/27 09:34:16;;;;;;;6.57;3.50;;;19.00;99.90;;;;;;6316054;22;20010;-79
2022/06/27 09:36:54;;;;;;;6.43;4.10;;;19.10;99.90;;;;;;6316133;22;20033;-81
2022/06/27 09:39:19;;;;;;;7.10;3.95;;;19.20;99.90;;;;;;6290620;22;20021;-81
2022/06/27 09:41:54;;;;;;;7.13;4.20;;;19.20;99.90;;;;;;6291011;22;20014;-81
2022/06/27 09:44:22;;;;;;;6.35;4.25;;;19.30;99.90;;;;;;6344719;22;20019;-82
2022/06/27 09:46:58;;;;;;;9.82;3.50;;;19.30;99.90;;;;;;6315681;22;20038;-81
2022/06/27 09:49:26;;;;;;;7.15;3.83;;;19.30;99.90;;;;;;6342542;22;20463;-83
2022/06/27 09:51:54;;;;;;;8.20;4.00;;;19.40;99.90;;;;;;6316020;22;20029;-80
2022/06/27 09:54:22;;;;;;;5.35;3.00;;;19.50;99.90;;;;;;6291335;22;20019;-79
2022/06/27 09:56:50;;;;;;;6.93;3.60;;;19.50;99.90;;;;;;6345476;22;20424;-80
2022/06/27 09:59:16;;;;;;;6.38;3.28;;;19.50;99.90;;;;;;6315995;22;20444;-79
2022/06/27 10:01:43;;;;;;;5.55;3.80;;;19.60;99.90;;;;;;6316070;22;20444;-81
2022/06/27 10:04:10;;;;;;;7.10;3.70;;;19.70;99.90;;;;;;6344379;22;20018;-83
2022/06/27 10:06:39;;;;;;;7.80;4.88;;;19.70;99.90;;;;;;6290036;22;20007;-81
2022/06/27 10:09:08;;;;;;;9.95;4.20;;;19.60;99.90;;;;;;6344543;22;20007;-82
2022/06/27 10:11:36;;;;;;;5.90;3.47;;;19.60;99.90;;;;;;6316081;22;20124;-80
2022/06/27 10:14:18;;;;;;;4.85;3.15;;;19.60;99.90;;;;;;6315938;22;20010;-78
2022/06/27 10:16:59;;;;;;;6.15;3.55;;;19.60;99.90;;;;;;6316081;22;20029;-80
2022/06/27 10:19:29;;;;;;;5.55;2.97;;;19.50;99.90;;;;;;6315334;22;20014;-81
2022/06/27 10:21:56;;;;;;;5.65;2.88;;;19.50;99.90;;;;;;6315679;22;20015;-81
2022/06/27 10:24:21;;;;;;;4.70;3.47;;;19.50;99.90;;;;;;6343526;22;20011;-81
2022/06/27 10:26:49;;;;;;;5.65;3.22;;;19.50;99.90;;;;;;6316843;22;20049;-83
2022/06/27 10:29:27;;;;;;;6.05;3.20;;;19.50;99.90;;;;;;6345111;22;20029;-80
2022/06/27 10:31:53;;;;;;;7.75;4.07;;;19.40;99.90;;;;;;6290282;22;20011;-82
2022/06/27 10:34:48;;;;;;;5.05;3.85;;;19.40;99.90;;;;;;6291186;22;20064;-81
2022/06/27 10:37:25;;;;;;;7.53;3.90;;;19.40;99.90;;;;;;6317982;22;20093;-80
2022/06/27 10:40:20;;;;;;;8.27;5.07;;;19.40;99.90;;;;;;6317702;22;20015;-81
2022/06/27 10:42:47;;;;;;;6.25;4.60;;;19.40;99.90;;;;;;6345175;22;20014;-80
2022/06/27 10:45:28;;;;;;;6.95;4.95;;;19.30;99.90;;;;;;6344188;22;20006;-81
2022/06/27 10:47:55;;;;;;;10.32;5.60;;;19.30;99.90;;;;;;6292740;22;20022;-79
2022/06/27 10:50:25;;;;;;;7.95;4.90;;;19.30;99.90;;;;;;6318060;22;20521;-80
2022/06/27 10:53:24;;;;;;;7.38;4.32;;;19.40;99.90;;;;;;6318215;22;20015;-80
2022/06/27 10:55:51;;;;;;;7.43;4.40;;;19.40;99.90;;;;;;6346394;22;20015;-81
2022/06/27 10:58:40;;;;;;;9.70;4.43;;;19.40;99.90;;;;;;6318003;22;20018;-82
2022/06/27 11:01:15;;;;;;;9.05;4.90;;;19.50;99.90;;;;;;6345789;22;20058;-80
2022/06/27 11:03:41;;;;;;;6.95;4.50;;;19.50;99.90;;;;;;6345794;22;20028;-77
2022/06/27 11:06:10;;;;;;;7.60;4.35;;;19.60;99.90;;;;;;6343570;22;20006;-81
2022/06/27 11:08:39;;;;;;;8.10;4.50;;;19.60;99.90;;;;;;6343472;22;20053;-84
2022/06/27 11:11:06;;;;;;;7.00;4.55;;;19.70;99.90;;;;;;6316331;22;20034;-81
2022/06/27 11:13:42;;;;;;;7.40;4.07;;;19.70;99.90;;;;;;6292520;22;20063;-83
2022/06/27 11:16:13;;;;;;;8.13;4.32;;;19.70;99.90;;;;;;6317326;22;20014;-82
2022/06/27 11:18:47;;;;;;;7.10;4.45;;;19.70;99.90;;;;;;6345264;22;20038;-80
2022/06/27 11:21:15;;;;;;;7.15;4.72;;;19.70;99.90;;;;;;6317732;22;20010;-81
2022/06/27 11:23:59;;;;;;;7.35;4.25;;;19.70;99.90;;;;;;6344723;22;20019;-78
2022/06/27 11:26:34;;;;;;;6.78;4.20;;;19.70;99.90;;;;;;6317681;22;20006;-83
2022/06/27 11:32:18;;;;;;;4.90;3.53;;;19.80;99.90;;;;;;6316567;22;20015;-81
2022/06/27 11:34:54;;;;;;;7.50;4.00;;;19.80;99.90;;;;;;6250328;22;20053;-80
2022/06/27 11:37:22;;;;;;;7.75;4.28;;;20.00;99.90;;;;;;6316760;22;20018;-81
2022/06/27 11:40:04;;;;;;;7.70;4.40;;;20.10;99.90;;;;;;6316301;22;20010;-81
2022/06/27 11:42:35;;;;;;;9.65;4.50;;;20.30;99.90;;;;;;6315066;22;20023;-86
2022/06/27 11:45:13;;;;;;;8.18;4.63;;;20.40;99.90;;;;;;6316190;22;20071;-81
2022/06/27 11:47:45;;;;;;;8.23;4.30;;;20.40;99.90;;;;;;6344207;22;20086;-82
2022/06/27 11:50:16;;;;;;;8.00;4.32;;;20.50;99.90;;;;;;6317085;22;20060;-83
2022/06/27 11:52:52;;;;;;;6.07;4.00;;;20.50;99.90;;;;;;6344684;22;20019;-82
2022/06/27 11:55:27;;;;;;;7.15;3.78;;;20.50;99.90;;;;;;6316712;22;20040;-81
2022/06/27 11:57:57;;;;;;;5.25;2.72;;;20.50;99.90;;;;;;6316893;22;20074;-81
2022/06/27 12:00:31;;;;;;;5.07;2.70;;;20.50;99.90;;;;;;6342682;22;20478;-81
2022/06/27 12:03:13;;;;;;;5.50;2.60;;;20.50;99.90;;;;;;6317019;22;20408;-83
2022/06/27 12:05:40;;;;;;;6.60;3.75;;;20.60;99.90;;;;;;6316523;22;20711;-83
2022/06/27 12:08:07;;;;;;;6.95;4.38;;;20.60;99.90;;;;;;6315447;22;20011;-82
2022/06/27 12:10:46;;;;;;;7.00;3.38;;;20.60;99.90;;;;;;6316402;22;20017;-82
2022/06/27 12:13:15;;;;;;;7.00;3.47;;;20.80;99.90;;;;;;6316648;22;20433;-82
2022/06/27 12:15:43;;;;;;;5.15;2.88;;;20.90;99.90;;;;;;6343799;22;20015;-82
2022/06/27 12:18:12;;;;;;;7.18;3.00;;;20.80;99.90;;;;;;6315608;22;20014;-81
2022/06/27 12:20:39;;;;;;;6.72;2.90;;;20.90;99.90;;;;;;6314398;22;20367;-82
2022/06/27 12:23:05;;;;;;;7.30;3.20;;;20.80;99.90;;;;;;6341686;22;20052;-82
2022/06/27 12:25:35;;;;;;;6.65;3.30;;;20.80;99.90;;;;;;6342928;22;20057;-79
2022/06/27 12:28:05;;;;;;;9.45;3.45;;;20.80;99.90;;;;;;6313696;22;20014;-80
2022/06/27 12:30:31;;;;;;;7.40;3.45;;;20.70;99.90;;;;;;6340263;22;20080;-80
2022/06/27 12:32:57;;;;;;;5.57;3.00;;;20.60;99.90;;;;;;6342187;22;20097;-84
2022/06/27 12:35:23;;;;;;;6.18;3.58;;;20.50;99.90;;;;;;6342720;22;20015;-81
2022/06/27 12:37:48;;;;;;;6.75;3.00;;;20.40;99.90;;;;;;6343314;22;20011;-81
2022/06/27 12:40:14;;;;;;;5.88;2.53;;;20.30;99.90;;;;;;6315552;22;20348;-79
2022/06/27 12:42:40;;;;;;;5.93;2.78;;;20.30;99.90;;;;;;6314238;22;20600;-81
2022/06/27 12:45:07;;;;;;;7.18;3.00;;;20.40;99.90;;;;;;6342508;22;20021;-82
2022/06/27 12:47:33;;;;;;;5.05;2.95;;;20.30;99.90;;;;;;6343594;22;20346;-81
2022/06/27 12:49:59;;;;;;;5.25;3.10;;;20.40;99.90;;;;;;6313529;22;20086;-78
2022/06/27 12:52:24;;;;;;;6.35;3.30;;;20.30;99.90;;;;;;6340992;22;20316;-81
2022/06/27 12:54:50;;;;;;;5.60;3.25;;;20.30;99.90;;;;;;6340358;22;20018;-83
2022/06/27 12:57:16;;;;;;;6.72;3.65;;;20.30;99.90;;;;;;6341337;22;20011;-81
2022/06/27 12:59:43;;;;;;;6.20;3.55;;;20.30;99.90;;;;;;6287202;22;20045;-81
2022/06/27 13:02:10;;;;;;;7.05;3.15;;;20.30;99.90;;;;;;6340699;22;20042;-79
2022/06/27 13:04:36;;;;;;;6.88;3.00;;;20.20;99.90;;;;;;6312605;22;20437;-82
2022/06/27 13:07:03;;;;;;;7.40;3.55;;;20.20;99.90;;;;;;6313253;22;20036;-80
2022/06/27 13:09:28;;;;;;;6.03;2.90;;;20.20;99.90;;;;;;6313131;22;20341;-82
2022/06/27 13:11:54;;;;;;;5.95;3.30;;;20.20;99.90;;;;;;6313008;22;20007;-81
2022/06/27 13:14:20;;;;;;;9.43;3.60;;;20.30;99.90;;;;;;6340795;22;20015;-79
2022/06/27 13:16:45;;;;;;;5.55;3.30;;;20.30;99.90;;;;;;6341078;22;20018;-81
2022/06/27 13:19:11;;;;;;;10.23;3.95;;;20.30;99.90;;;;;;6287728;22;20015;-83
2022/06/27 13:21:38;;;;;;;6.82;4.32;;;20.30;99.90;;;;;;6313676;22;20015;-82
2022/06/27 13:24:04;;;;;;;6.32;3.90;;;20.30;99.90;;;;;;6313082;22;20471;-76
2022/06/27 13:26:30;;;;;;;5.60;3.78;;;20.20;99.90;;;;;;6289504;22;20006;-82
2022/06/27 13:28:56;;;;;;;6.22;3.33;;;20.10;99.90;;;;;;6287913;22;20436;-82
2022/06/27 13:31:22;;;;;;;4.93;3.40;;;20.20;99.90;;;;;;6342196;22;20011;-82
2022/06/27 13:33:48;;;;;;;6.88;3.92;;;20.10;99.90;;;;;;6341661;22;20019;-81
2022/06/27 13:36:14;;;;;;;5.20;3.63;;;20.20;99.90;;;;;;6288746;22;20018;-84
2022/06/27 13:38:40;;;;;;;7.40;3.58;;;20.20;99.90;;;;;;6315757;22;20019;-83
2022/06/27 13:41:05;;;;;;;7.80;3.83;;;20.20;99.90;;;;;;6315382;22;20086;-83
2022/06/27 13:43:31;;;;;;;6.90;3.60;;;20.20;99.90;;;;;;6314376;22;20065;-85
2022/06/27 13:45:57;;;;;;;7.53;3.90;;;20.20;99.90;;;;;;6342379;22;20003;-83
2022/06/27 13:48:22;;;;;;;7.03;3.85;;;20.20;99.90;;;;;;6314356;22;20443;-82
2022/06/27 13:50:48;;;;;;;3.95;3.10;;;20.10;99.90;;;;;;6313482;22;20011;-85
2022/06/27 13:53:14;;;;;;;6.47;3.75;;;20.10;99.90;;;;;;6341687;22;20007;-82
2022/06/27 13:55:39;;;;;;;6.05;3.30;;;20.10;99.90;;;;;;6313710;22;20082;-83
2022/06/27 13:58:06;;;;;;;7.78;3.85;;;20.00;99.90;;;;;;6341979;22;20007;-84
2022/06/27 14:00:33;;;;;;;8.90;3.90;;;20.00;99.90;;;;;;6316722;22;20007;-82
2022/06/27 14:03:00;;;;;;;10.65;3.88;;;20.00;99.90;;;;;;6314958;22;20014;-83
2022/06/27 14:05:26;;;;;;;4.68;3.55;;;19.90;99.90;;;;;;6342364;22;20042;-84
2022/06/27 14:07:53;;;;;;;6.30;3.38;;;19.90;99.90;;;;;;6341543;22;20007;-83
2022/06/27 14:10:21;;;;;;;6.57;3.28;;;19.90;99.90;;;;;;6288682;22;20059;-83
2022/06/27 14:12:58;;;;;;;;;;;;;;;;;;;;;
2022/06/27 14:15:24;;;;;;;8.82;5.07;;;19.90;99.90;;;;;;6313429;22;20011;-81
2022/06/27 14:17:50;;;;;;;8.48;4.07;;;19.80;99.90;;;;;;6344134;22;20007;-85
2022/06/27 14:20:17;;;;;;;7.40;4.30;;;19.90;99.90;;;;;;6323786;22;20037;-88
2022/06/27 14:22:49;;;;;;;6.60;4.05;;;19.80;99.90;;;;;;6297801;22;20104;-91
2022/06/27 14:25:18;;;;;;;7.93;4.38;;;19.70;99.90;;;;;;6324812;22;20038;-90
2022/06/27 14:27:44;;;;;;;10.38;5.03;;;19.70;99.90;;;;;;6299206;22;20011;-89
2022/06/27 14:30:10;;;;;;;7.65;4.90;;;19.60;99.90;;;;;;6354572;22;20014;-90
2022/06/27 14:32:36;;;;;;;8.77;5.50;;;19.60;99.90;;;;;;6301753;22;20038;-89
2022/06/27 14:35:02;;;;;;;11.32;5.07;;;19.50;99.90;;;;;;6300084;22;20085;-91
2022/06/27 14:37:27;;;;;;;10.57;5.07;;;19.60;99.90;;;;;;6300744;22;20015;-89
2022/06/27 14:39:53;;;;;;;8.55;4.85;;;19.60;99.90;;;;;;6299620;22;20044;-89
2022/06/27 14:42:21;;;;;;;11.57;5.05;;;19.60;99.90;;;;;;6295955;22;20026;-89
2022/06/27 14:44:47;;;;;;;6.85;4.57;;;19.70;99.90;;;;;;6352331;22;20018;-89
2022/06/27 14:47:12;;;;;;;5.70;4.38;;;19.70;99.90;;;;;;6303021;22;20015;-88
2022/06/27 14:49:38;;;;;;;10.13;5.22;;;19.70;99.90;;;;;;6326451;22;20030;-84
2022/06/27 14:52:07;;;;;;;8.05;5.10;;;19.70;99.90;;;;;;6301525;22;20022;-87
2022/06/27 14:54:38;;;;;;;10.68;5.03;;;19.60;99.90;;;;;;6302420;22;20046;-92
2022/06/27 14:57:04;;;;;;;12.30;5.65;;;19.60;99.90;;;;;;6348095;22;20360;-86
2022/06/27 14:59:31;;;;;;;10.90;5.50;;;19.60;99.90;;;;;;6320482;22;20010;-90
2022/06/27 15:01:56;;;;;;;8.23;4.60;;;19.60;99.90;;;;;;6326384;22;20011;-88
2022/06/27 15:04:22;;;;;;;8.68;5.20;;;19.50;99.90;;;;;;6291084;22;20022;-80
2022/06/27 15:07:04;;;;;;;9.45;4.65;;;19.50;99.90;;;;;;6287989;22;20011;-92
2022/06/27 15:09:30;;;;;;;6.35;4.90;;;19.50;99.90;;;;;;6327156;22;20019;-87
2022/06/27 15:14:44;;;;;;;11.35;6.18;;;19.30;99.90;;;;;;6329941;22;20076;-89
2022/06/27 15:17:09;;;;;;;7.78;5.40;;;19.30;99.90;;;;;;6326274;22;20052;-87
2022/06/27 15:19:35;;;;;;;8.18;4.97;;;19.20;99.90;;;;;;6300391;22;20011;-90
2022/06/27 15:22:01;;;;;;;10.60;4.85;;;19.20;99.90;;;;;;6325068;22;20011;-88
2022/06/27 15:24:27;;;;;;;8.63;4.47;;;19.10;99.90;;;;;;6354110;22;20502;-87
2022/06/27 15:26:56;;;;;;;6.47;3.40;;;19.00;99.90;;;;;;6324240;22;20018;-87
2022/06/27 15:29:22;;;;;;;5.07;2.50;;;18.70;99.90;;;;;;6346759;22;20010;-87
2022/06/27 15:31:48;;;;;;;8.85;3.08;;;18.50;99.90;;;;;;6291335;22;20011;-83
2022/06/27 15:34:14;;;;;;;7.45;2.60;;;18.30;99.90;;;;;;6349104;22;20006;-79
2022/06/27 15:36:40;;;;;;;9.18;2.38;;;18.10;99.90;;;;;;6301457;22;20091;-88
2022/06/27 15:39:07;;;;;;;4.85;2.60;;;17.90;99.90;;;;;;6327568;22;20021;-83
2022/06/27 15:41:32;;;;;;;8.52;2.88;;;17.80;99.90;;;;;;6325392;22;20041;-86
2022/06/27 15:44:01;;;;;;;5.30;2.83;;;17.60;99.90;;;;;;6356318;22;20006;-85
2022/06/27 15:46:32;;;;;;;6.88;3.15;;;17.30;99.90;;;;;;6308157;22;20044;-82
2022/06/27 15:49:08;;;;;;;7.22;2.95;;;17.20;99.90;;;;;;6337626;22;20020;-83
2022/06/27 15:51:34;;;;;;;4.75;2.97;;;17.10;99.90;;;;;;6320735;22;20026;-84
2022/06/27 15:54:03;;;;;;;7.82;3.42;;;17.00;99.90;;;;;;6319670;22;20015;-85
2022/06/27 15:56:30;;;;;;;7.20;3.10;;;16.80;99.90;;;;;;6347707;22;20086;-83
2022/06/27 15:58:56;;;;;;;6.68;3.97;;;16.80;99.90;;;;;;6326678;22;20021;-86
2022/06/27 16:01:22;;;;;;;7.68;3.95;;;16.80;99.90;;;;;;6298068;22;20011;-87
2022/06/27 16:03:48;;;;;;;8.48;4.40;;;16.70;99.90;;;;;;6326347;22;20014;-88
2022/06/27 16:06:14;;;;;;;7.18;4.32;;;16.60;99.90;;;;;;6324331;22;20052;-84
2022/06/27 16:08:40;;;;;;;8.13;4.70;;;16.60;99.90;;;;;;6323151;22;20045;-85
2022/06/27 16:11:09;;;;;;;9.68;5.38;;;16.60;99.90;;;;;;6328085;22;20010;-88
2022/06/27 16:13:38;;;;;;;9.68;5.50;;;16.60;99.90;;;;;;6303615;22;20015;-92
2022/06/27 16:16:51;;;;;;;10.93;6.28;;;16.50;99.90;;;;;;6331011;22;20064;-91
2022/06/27 16:19:16;;;;;;;11.32;6.28;;;16.40;99.90;;;;;;6302726;22;20039;-90
2022/06/27 16:21:48;;;;;;;12.77;6.55;;;16.30;99.90;;;;;;6303622;22;20018;-91
2022/06/27 16:24:15;;;;;;;13.10;7.60;;;16.30;99.90;;;;;;6301335;22;20097;-88
2022/06/27 16:26:41;;;;;;;12.65;7.47;;;16.20;99.90;;;;;;6327248;22;20009;-87
2022/06/27 16:29:10;;;;;;;15.10;8.57;;;16.20;99.90;;;;;;6326131;22;20037;-88
2022/06/27 16:31:43;;;;;;;12.38;8.00;;;16.20;99.90;;;;;;6299934;22;20017;-89
2022/06/27 16:34:14;;;;;;;11.38;7.57;;;16.20;99.90;;;;;;6323207;22;20017;-87
2022/06/27 16:36:47;;;;;;;13.05;8.80;;;16.20;99.90;;;;;;6326094;22;20029;-86